Time;durP1;ratioP1;P1;durP2;ratioP2;P2;SDS_P1;SDS_P2;PMS_P1;PMS_P2;Temp;Humidity;BMP_temperature;BMP_pressure;BME280_temperature;BME280_humidity;BME280_pressure;Samples;Min_cycle;Max_cycle;Signal;HPM_P1;HPM_P2
2023/04/26 00:01:26;;;;;;;24.75;12.68;;;;;;;8.28;nan;99737.97;4939235;28;20031;-75
2023/04/26 00:03:51;;;;;;;23.80;11.82;;;;;;;8.29;nan;99736.97;4939265;28;20268;-75
2023/04/26 00:06:17;;;;;;;22.63;10.80;;;;;;;8.19;nan;99724.41;4938811;28;20027;-75
2023/04/26 00:08:43;;;;;;;16.20;9.95;;;;;;;8.21;nan;99729.41;4940817;28;20026;-76
2023/04/26 00:11:08;;;;;;;19.40;9.85;;;;;;;8.11;nan;99727.34;4940382;28;20028;-75
2023/04/26 00:13:33;;;;;;;20.95;10.48;;;;;;;8.14;nan;99745.25;4942754;28;20105;-76
2023/04/26 00:15:59;;;;;;;19.55;10.25;;;;;;;8.10;nan;99744.09;4941293;28;20443;-76
2023/04/26 00:18:24;;;;;;;15.68;8.70;;;;;;;8.13;nan;99751.50;4942282;28;20030;-76
2023/04/26 00:20:50;;;;;;;15.85;9.13;;;;;;;8.12;nan;99749.94;4941246;28;20051;-76
2023/04/26 00:23:16;;;;;;;15.52;8.65;;;;;;;8.10;nan;99741.47;4938340;28;20059;-76
2023/04/26 00:25:41;;;;;;;14.52;8.30;;;;;;;8.11;nan;99756.19;4940769;29;20482;-75
2023/04/26 00:28:07;;;;;;;15.02;8.70;;;;;;;8.09;nan;99742.50;4941900;28;20047;-75
2023/04/26 00:30:36;;;;;;;15.32;9.77;;;;;;;8.04;nan;99735.28;4939933;28;20042;-76
2023/04/26 00:33:02;;;;;;;16.40;9.52;;;;;;;8.11;nan;99750.94;4941420;28;20026;-75
2023/04/26 00:35:27;;;;;;;16.27;9.98;;;;;;;7.99;nan;99743.03;4938478;28;20031;-76
2023/04/26 00:37:53;;;;;;;16.92;10.43;;;;;;;8.08;nan;99756.63;4942997;28;20082;-76
2023/04/26 00:40:19;;;;;;;14.20;9.35;;;;;;;8.01;nan;99748.84;4927326;29;20041;-76
2023/04/26 00:42:45;;;;;;;17.17;10.27;;;;;;;8.11;nan;99756.19;4943027;28;20108;-76
2023/04/26 00:45:10;;;;;;;14.23;9.55;;;;;;;8.00;nan;99744.66;4926775;29;20027;-76
2023/04/26 00:47:36;;;;;;;15.27;9.70;;;;;;;7.87;nan;99724.66;4941758;28;20035;-76
2023/04/26 00:50:02;;;;;;;15.40;9.63;;;;;;;8.06;nan;99759.47;4943013;28;20023;-76
2023/04/26 00:52:29;;;;;;;17.35;10.13;;;;;;;7.89;nan;99733.09;4923905;29;20031;-71
2023/04/26 00:54:55;;;;;;;16.88;9.80;;;;;;;7.91;nan;99740.75;4938691;28;20477;-71
2023/04/26 00:57:21;;;;;;;17.65;9.85;;;;;;;7.97;nan;99744.28;4939658;28;20543;-71
2023/04/26 00:59:46;;;;;;;19.48;9.75;;;;;;;7.66;nan;99696.31;4939750;28;20110;-70
2023/04/26 01:02:12;;;;;;;20.13;10.27;;;;;;;8.03;nan;99751.28;4936726;29;20146;-71
2023/04/26 01:04:40;;;;;;;18.45;10.38;;;;;;;7.95;nan;99743.69;4932768;29;20076;-72
2023/04/26 01:07:06;;;;;;;18.65;10.60;;;;;;;8.00;nan;99736.00;4922714;29;20497;-71
2023/04/26 01:09:32;;;;;;;17.67;10.50;;;;;;;8.03;nan;99746.81;4923555;28;20265;-76
2023/04/26 01:11:59;;;;;;;21.00;10.98;;;;;;;8.09;nan;99752.97;4940294;28;20020;-76
2023/04/26 01:14:25;;;;;;;16.88;10.43;;;;;;;8.04;nan;99731.88;4924630;29;20031;-71
2023/04/26 01:16:51;;;;;;;20.08;10.93;;;;;;;8.07;nan;99734.06;4937921;28;20020;-71
2023/04/26 01:19:17;;;;;;;18.00;10.80;;;;;;;8.14;nan;99741.81;4938843;28;20038;-70
2023/04/26 01:21:42;;;;;;;18.20;10.80;;;;;;;8.11;nan;99729.97;4938853;28;20492;-72
2023/04/26 01:24:12;;;;;;;17.67;10.90;;;;;;;8.26;nan;99747.88;4944008;28;20529;-76
2023/04/26 01:26:44;;;;;;;16.65;9.73;;;;;;;8.08;nan;99736.44;4924765;29;20465;-76
2023/04/26 01:29:17;;;;;;;17.27;9.73;;;;;;;8.21;nan;99750.38;4921147;29;20095;-76
2023/04/26 01:31:43;;;;;;;21.05;10.05;;;;;;;8.23;nan;99743.09;4919262;29;20063;-71
2023/04/26 01:34:08;;;;;;;13.65;9.32;;;;;;;8.12;nan;99731.56;4933229;29;20082;-71
2023/04/26 01:36:34;;;;;;;16.02;9.70;;;;;;;8.10;nan;99733.63;4920127;29;20151;-71
2023/04/26 01:39:00;;;;;;;15.85;9.10;;;;;;;8.13;nan;99733.16;4920693;29;20030;-71
2023/04/26 01:41:25;;;;;;;13.68;8.30;;;;;;;8.17;nan;99730.91;4920882;29;20030;-71
2023/04/26 01:43:50;;;;;;;10.25;6.95;;;;;;;8.22;nan;99744.94;4919965;29;20475;-71
2023/04/26 01:46:16;;;;;;;8.88;6.00;;;;;;;8.19;nan;99747.19;4917988;29;20035;-71
2023/04/26 01:48:41;;;;;;;9.75;6.40;;;;;;;8.12;nan;99741.25;4920203;29;20055;-71
2023/04/26 01:51:07;;;;;;;8.88;6.20;;;;;;;8.19;nan;99744.56;4920651;29;20585;-71
2023/04/26 01:53:32;;;;;;;13.23;6.80;;;;;;;8.23;nan;99749.13;4922145;29;20039;-71
2023/04/26 01:56:01;;;;;;;9.93;6.50;;;;;;;8.26;nan;99753.13;4918277;29;20110;-71
2023/04/26 01:58:27;;;;;;;9.15;6.60;;;;;;;8.16;nan;99735.31;4921374;29;20055;-75
2023/04/26 02:00:52;;;;;;;9.63;6.22;;;;;;;8.24;nan;99752.59;4920582;29;20122;-76
2023/04/26 02:03:18;;;;;;;9.00;6.25;;;;;;;8.23;nan;99762.25;4921638;29;20505;-76
2023/04/26 02:05:43;;;;;;;10.32;6.78;;;;;;;8.11;nan;99750.94;4919794;29;20064;-71
2023/04/26 02:08:09;;;;;;;11.85;7.03;;;;;;;8.18;nan;99764.75;4920313;29;20538;-71
2023/04/26 02:10:34;;;;;;;11.18;7.10;;;;;;;7.91;nan;99747.81;4920730;29;20047;-70
2023/04/26 02:13:00;;;;;;;11.13;7.13;;;;;;;7.87;nan;99740.38;4920106;29;20054;-72
2023/04/26 02:15:25;;;;;;;11.07;6.93;;;;;;;8.05;nan;99764.97;4936618;28;20043;-71
2023/04/26 02:17:52;;;;;;;11.45;7.63;;;;;;;7.89;nan;99743.56;4920444;29;20036;-71
2023/04/26 02:20:18;;;;;;;11.35;7.20;;;;;;;7.97;nan;99763.44;4924896;29;20070;-71
2023/04/26 02:22:43;;;;;;;14.18;7.97;;;;;;;7.82;nan;99742.88;4926062;29;20031;-72
2023/04/26 02:25:10;;;;;;;12.18;7.97;;;;;;;7.81;nan;99758.84;4917104;29;20107;-70
2023/04/26 02:27:35;;;;;;;15.25;8.73;;;;;;;7.81;nan;99767.50;4925339;28;20047;-70
2023/04/26 02:30:01;;;;;;;12.48;7.70;;;;;;;7.74;nan;99760.75;4939094;28;20035;-72
2023/04/26 02:32:26;;;;;;;12.88;7.93;;;;;;;7.71;nan;99759.38;4939216;29;20030;-71
2023/04/26 02:34:52;;;;;;;13.15;7.63;;;;;;;7.81;nan;99774.56;4925373;29;20040;-71
2023/04/26 02:37:17;;;;;;;11.43;7.03;;;;;;;7.78;nan;99775.81;4937945;28;20430;-70
2023/04/26 02:39:42;;;;;;;14.15;7.88;;;;;;;7.74;nan;99768.59;4940461;28;20032;-71
2023/04/26 02:42:09;;;;;;;16.40;8.25;;;;;;;7.77;nan;99781.25;4941150;28;20023;-72
2023/04/26 02:44:35;;;;;;;12.50;7.63;;;;;;;7.61;nan;99759.06;4938407;28;20117;-71
2023/04/26 02:47:00;;;;;;;11.48;7.43;;;;;;;7.69;nan;99779.75;4937567;28;20446;-71
2023/04/26 02:49:26;;;;;;;12.95;7.80;;;;;;;7.78;nan;99794.16;4938331;28;20027;-72
2023/04/26 02:51:51;;;;;;;13.02;8.35;;;;;;;7.73;nan;99791.38;4938454;28;20071;-72
2023/04/26 02:54:17;;;;;;;14.95;8.82;;;;;;;7.69;nan;99785.00;4929867;29;20027;-72
2023/04/26 02:56:42;;;;;;;15.10;8.95;;;;;;;7.67;nan;99787.03;4943031;28;20026;-72
2023/04/26 02:59:08;;;;;;;15.93;9.65;;;;;;;7.75;nan;99791.94;4936907;28;20505;-76
2023/04/26 03:01:33;;;;;;;17.65;9.98;;;;;;;7.74;nan;99793.00;4941198;28;20035;-77
2023/04/26 03:03:59;;;;;;;15.45;9.70;;;;;;;7.80;nan;99794.72;4923805;28;20027;-77
2023/04/26 03:06:24;;;;;;;21.02;10.38;;;;;;;7.83;nan;99804.78;4939670;28;20478;-77
2023/04/26 03:08:49;;;;;;;13.98;8.88;;;;;;;7.78;nan;99795.94;4936467;28;20031;-76
2023/04/26 03:11:15;;;;;;;14.57;8.95;;;;;;;7.79;nan;99793.13;4937695;28;20098;-76
2023/04/26 03:13:40;;;;;;;15.80;8.65;;;;;;;7.91;nan;99808.91;4940168;28;20027;-76
2023/04/26 03:16:06;;;;;;;17.65;10.05;;;;;;;7.85;nan;99794.88;4938518;28;20489;-76
2023/04/26 03:18:31;;;;;;;19.92;10.52;;;;;;;7.86;nan;99798.28;4936580;28;20039;-76
2023/04/26 03:20:56;;;;;;;16.73;8.82;;;;;;;8.09;nan;99818.53;4937563;28;20027;-76
2023/04/26 03:23:24;;;;;;;14.45;8.50;;;;;;;8.02;nan;99807.34;4926530;29;20123;-76
2023/04/26 03:25:50;;;;;;;16.35;10.07;;;;;;;8.04;nan;99805.28;4941288;28;20043;-76
2023/04/26 03:28:16;;;;;;;15.70;9.25;;;;;;;7.98;nan;99799.13;4938610;28;20070;-76
2023/04/26 03:30:41;;;;;;;14.18;8.50;;;;;;;8.02;nan;99813.41;4941202;28;20555;-76
2023/04/26 03:33:06;;;;;;;16.10;8.52;;;;;;;8.02;nan;99823.88;4940909;28;20066;-76
2023/04/26 03:35:32;;;;;;;12.25;7.90;;;;;;;8.06;nan;99825.03;4942034;28;20032;-77
2023/04/26 03:37:57;;;;;;;12.73;7.93;;;;;;;7.98;nan;99830.59;4944225;28;20019;-76
2023/04/26 03:40:22;;;;;;;11.73;7.63;;;;;;;7.94;nan;99818.16;4939151;28;20032;-77
2023/04/26 03:42:48;;;;;;;10.82;7.47;;;;;;;7.88;nan;99804.09;4940835;28;20455;-76
2023/04/26 03:45:13;;;;;;;11.45;7.10;;;;;;;8.00;nan;99835.63;4944425;28;20027;-76
2023/04/26 03:47:38;;;;;;;11.30;7.50;;;;;;;8.07;nan;99838.97;4924563;29;20462;-77
2023/04/26 03:50:06;;;;;;;14.15;8.15;;;;;;;8.05;nan;99843.63;4926213;29;20023;-76
2023/04/26 03:52:31;;;;;;;15.50;9.30;;;;;;;8.11;nan;99850.59;4939550;28;20031;-76
2023/04/26 03:54:56;;;;;;;12.60;7.85;;;;;;;8.06;nan;99842.59;4940201;28;20031;-76
2023/04/26 03:57:22;;;;;;;14.35;9.40;;;;;;;8.14;nan;99868.53;4940816;28;20034;-75
2023/04/26 03:59:47;;;;;;;14.30;9.18;;;;;;;;;;4940877;28;20036;-75
2023/04/26 04:02:12;;;;;;;13.87;9.20;;;;;;;;;;4926920;28;20032;-76
2023/04/26 04:04:38;;;;;;;12.98;8.57;;;;;;;;;;4946348;28;20995;-75
2023/04/26 04:07:03;;;;;;;12.50;8.47;;;;;;;;;;4937955;28;20424;-75
2023/04/26 04:09:28;;;;;;;14.27;9.37;;;;;;;;;;4939860;28;20376;-75
2023/04/26 04:11:53;;;;;;;16.58;10.20;;;;;;;;;;4937170;28;20028;-75
2023/04/26 04:14:19;;;;;;;12.77;8.88;;;;;;;;;;4941691;28;20388;-76
2023/04/26 04:16:44;;;;;;;14.70;9.60;;;;;;;;;;4927710;28;20035;-75
2023/04/26 04:19:09;;;;;;;19.30;10.57;;;;;;;;;;4939049;28;20036;-75
2023/04/26 04:21:35;;;;;;;15.93;9.83;;;;;;;;;;4938564;28;20289;-76
2023/04/26 04:24:00;;;;;;;18.70;10.85;;;;;;;;;;4936899;29;20828;-75
2023/04/26 04:26:26;;;;;;;14.20;9.47;;;;;;;;;;4936304;28;20589;-75
2023/04/26 04:28:53;;;;;;;16.65;10.00;;;;;;;;;;4942264;28;20293;-76
2023/04/26 04:31:19;;;;;;;14.60;9.55;;;;;;;;;;4936903;28;20042;-75
2023/04/26 04:33:44;;;;;;;15.17;10.03;;;;;;;;;;4939718;29;20032;-74
2023/04/26 04:36:09;;;;;;;12.73;8.63;;;;;;;;;;4938992;28;20352;-75
2023/04/26 04:38:35;;;;;;;16.50;10.23;;;;;;;;;;4940813;28;20039;-75
2023/04/26 04:41:00;;;;;;;14.07;9.05;;;;;;;;;;4930520;28;20038;-75
2023/04/26 04:43:26;;;;;;;15.17;9.23;;;;;;;;;;4940738;28;20726;-75
2023/04/26 04:45:52;;;;;;;14.23;8.95;;;;;;;;;;4941526;28;20281;-76
2023/04/26 04:48:20;;;;;;;13.38;8.73;;;;;;;;;;4929805;29;20031;-75
2023/04/26 04:50:45;;;;;;;14.38;9.18;;;;;;;;;;4938781;28;20059;-75
2023/04/26 04:53:13;;;;;;;17.52;10.02;;;;;;;;;;4939461;28;20141;-75
2023/04/26 04:55:39;;;;;;;18.23;9.90;;;;;;;;;;4936353;28;20024;-75
2023/04/26 04:58:05;;;;;;;18.13;10.63;;;;;;;;;;4931834;29;20030;-74
2023/04/26 05:00:30;;;;;;;14.90;9.98;;;;;;;;;;4938749;28;20034;-75
2023/04/26 05:02:56;;;;;;;15.43;10.10;;;;;;;;;;4942045;28;20035;-75
2023/04/26 05:05:21;;;;;;;17.02;10.07;;;;;;;;;;4935696;28;20039;-76
2023/04/26 05:07:46;;;;;;;15.00;9.15;;;;;;;;;;4921045;29;20036;-75
2023/04/26 05:10:12;;;;;;;13.70;8.90;;;;;;;;;;4937383;28;20091;-75
2023/04/26 05:12:37;;;;;;;13.10;8.55;;;;;;;;;;4941077;28;20308;-74
2023/04/26 05:15:03;;;;;;;13.45;9.20;;;;;;;;;;4927800;28;20039;-76
2023/04/26 05:17:31;;;;;;;18.08;8.38;;;;;;;;;;4938879;29;20024;-75
2023/04/26 05:19:56;;;;;;;14.90;9.05;;;;;;;;;;4942164;28;20094;-70
2023/04/26 05:22:21;;;;;;;17.15;8.70;;;;;;;;;;4937754;28;20036;-75
2023/04/26 05:24:47;;;;;;;13.85;8.38;;;;;;;;;;4930049;28;20086;-75
2023/04/26 05:27:13;;;;;;;17.35;8.98;;;;;;;;;;4935889;29;20048;-71
2023/04/26 05:29:38;;;;;;;13.40;8.55;;;;;;;;;;4922096;28;20036;-73
2023/04/26 05:32:04;;;;;;;16.52;8.02;;;;;;;;;;4937336;28;20063;-75
2023/04/26 05:34:29;;;;;;;13.75;7.93;;;;;;;;;;4935693;28;20043;-75
2023/04/26 05:36:55;;;;;;;18.83;8.57;;;;;;;;;;4924582;29;20023;-74
2023/04/26 05:39:20;;;;;;;15.68;8.77;;;;;;;;;;4938823;28;20039;-75
2023/04/26 05:41:45;;;;;;;15.27;9.32;;;;;;;;;;4929354;29;20090;-76
2023/04/26 05:44:12;;;;;;;14.77;8.50;;;;;;;;;;4936369;28;20035;-75
2023/04/26 05:46:37;;;;;;;13.32;8.48;;;;;;;;;;4932170;28;20024;-74
2023/04/26 05:49:02;;;;;;;12.10;7.70;;;;;;;;;;4939092;28;20656;-73
2023/04/26 05:51:27;;;;;;;11.63;7.80;;;;;;;;;;4937873;28;20356;-74
2023/04/26 05:53:53;;;;;;;15.88;7.63;;;;;;;;;;4938588;28;20268;-76
2023/04/26 05:56:18;;;;;;;13.20;7.78;;;;;;;;;;4936048;28;20160;-74
2023/04/26 05:58:43;;;;;;;13.63;7.73;;;;;;;;;;4922620;28;20030;-74
2023/04/26 06:01:08;;;;;;;12.90;8.33;;;;;;;;;;4938483;28;20274;-75
2023/04/26 06:03:34;;;;;;;17.40;10.23;;;;;;;8.78;nan;100009.81;4939134;28;20031;-76
2023/04/26 06:06:00;;;;;;;15.80;10.48;;;;;;;;;;4929681;29;20042;-75
2023/04/26 06:08:27;;;;;;;17.85;9.48;;;;;;;;;;4936079;28;20031;-73
2023/04/26 06:10:52;;;;;;;17.00;9.75;;;;;;;;;;4928618;28;20066;-75
2023/04/26 06:13:18;;;;;;;16.95;10.73;;;;;;;;;;4924391;28;20406;-76
2023/04/26 06:15:44;;;;;;;18.97;11.27;;;;;;;;;;4930260;29;20038;-76
2023/04/26 06:18:09;;;;;;;17.33;11.63;;;;;;;;;;4935319;28;20659;-76
2023/04/26 06:20:34;;;;;;;20.05;10.90;;;;;;;9.20;nan;100075.50;4937880;28;20035;-76
2023/04/26 06:23:00;;;;;;;21.42;11.02;;;;;;;8.84;nan;100019.44;4936914;28;20034;-76
2023/04/26 06:25:25;;;;;;;17.27;9.70;;;;;;;8.93;nan;100025.94;4941659;28;20027;-76
2023/04/26 06:27:51;;;;;;;15.93;9.65;;;;;;;8.87;nan;100018.97;4936483;28;20143;-77
2023/04/26 06:30:16;;;;;;;17.55;9.57;;;;;;;8.91;nan;100031.44;4939215;28;20371;-76
2023/04/26 06:32:44;;;;;;;16.75;10.82;;;;;;;8.86;nan;100026.06;4938721;28;20063;-76
2023/04/26 06:35:10;;;;;;;27.00;11.77;;;;;;;8.87;nan;100035.53;4920004;29;20038;-77
2023/04/26 06:37:36;;;;;;;19.55;10.35;;;;;;;8.78;nan;100020.31;4938556;28;20034;-75
2023/04/26 06:40:02;;;;;;;18.58;11.45;;;;;;;8.86;nan;100033.09;4929693;28;20027;-75
2023/04/26 06:42:27;;;;;;;20.48;12.52;;;;;;;8.89;nan;100033.47;4929871;28;20272;-73
2023/04/26 06:44:53;;;;;;;23.00;14.15;;;;;;;8.87;nan;100032.09;4921088;29;20035;-72
2023/04/26 06:47:18;;;;;;;23.38;12.93;;;;;;;8.82;nan;100021.47;4935228;28;20031;-72
2023/04/26 06:49:44;;;;;;;27.25;13.85;;;;;;;8.75;nan;100020.75;4923898;29;20083;-72
2023/04/26 06:52:09;;;;;;;25.80;14.15;;;;;;;8.72;nan;100014.91;4936603;28;20059;-72
2023/04/26 06:54:35;;;;;;;24.88;14.48;;;;;;;8.85;nan;100034.16;4936892;28;20031;-72
2023/04/26 06:57:01;;;;;;;25.55;14.43;;;;;;;8.86;nan;100033.09;4928618;28;20115;-73
2023/04/26 06:59:26;;;;;;;23.85;14.70;;;;;;;8.83;nan;100023.84;4937380;29;20031;-74
2023/04/26 07:01:52;;;;;;;28.75;15.73;;;;;;;8.88;nan;100028.44;4932318;29;20032;-74
2023/04/26 07:04:19;;;;;;;23.80;14.48;;;;;;;8.92;nan;100040.09;4927139;29;20031;-73
2023/04/26 07:06:45;;;;;;;24.25;14.15;;;;;;;8.94;nan;100041.50;4941745;28;20552;-71
2023/04/26 07:09:11;;;;;;;22.48;13.45;;;;;;;8.95;nan;100034.41;4941712;28;20063;-72
2023/04/26 07:11:37;;;;;;;22.45;13.20;;;;;;;8.92;nan;100040.91;4941217;28;20027;-71
2023/04/26 07:14:03;;;;;;;22.88;12.65;;;;;;;8.92;nan;100045.38;4938593;28;20555;-72
2023/04/26 07:16:29;;;;;;;20.85;12.45;;;;;;;9.00;nan;100052.13;4928414;28;20035;-72
2023/04/26 07:18:57;;;;;;;21.42;12.52;;;;;;;8.80;nan;100026.13;4942393;28;20390;-73
2023/04/26 07:21:23;;;;;;;22.92;12.05;;;;;;;8.83;nan;100044.06;4939716;28;20106;-72
2023/04/26 07:23:52;;;;;;;17.05;11.15;;;;;;;8.78;nan;100039.47;4928579;29;20426;-76
2023/04/26 07:26:18;;;;;;;16.42;10.95;;;;;;;8.58;nan;100021.34;4920852;29;20032;-77
2023/04/26 07:28:46;;;;;;;16.38;10.13;;;;;;;8.93;nan;100068.78;4938236;28;20056;-74
2023/04/26 07:31:11;;;;;;;20.05;11.40;;;;;;;8.96;nan;100067.53;4924230;28;20031;-76
2023/04/26 07:33:37;;;;;;;22.42;11.50;;;;;;;9.00;nan;100073.94;4941062;28;20031;-75
2023/04/26 07:36:02;;;;;;;16.98;11.23;;;;;;;8.94;nan;100065.13;4926544;28;20031;-75
2023/04/26 07:38:30;;;;;;;17.13;11.05;;;;;;;9.01;nan;100065.03;4931902;29;20016;-75
2023/04/26 07:40:55;;;;;;;19.02;11.07;;;;;;;9.05;nan;100071.47;4940308;28;20130;-74
2023/04/26 07:43:21;;;;;;;17.83;11.98;;;;;;;9.09;nan;100072.59;4940039;28;20118;-74
2023/04/26 07:45:47;;;;;;;22.63;12.00;;;;;;;9.08;nan;100063.13;4922072;28;20099;-75
2023/04/26 07:48:12;;;;;;;18.48;11.60;;;;;;;9.14;nan;100079.81;4941111;28;20027;-75
2023/04/26 07:50:41;;;;;;;25.30;12.40;;;;;;;9.30;nan;100088.91;4940657;28;20039;-74
2023/04/26 07:53:06;;;;;;;21.23;10.85;;;;;;;9.31;nan;100095.75;4926142;28;20093;-74
2023/04/26 07:55:32;;;;;;;20.02;10.30;;;;;;;9.19;nan;100076.53;4939378;28;20062;-74
2023/04/26 07:57:57;;;;;;;15.32;9.95;;;;;;;9.24;nan;100079.28;4943250;28;20023;-75
2023/04/26 08:00:23;;;;;;;19.23;9.50;;;;;;;9.42;nan;100104.72;4943463;28;20110;-76
2023/04/26 08:02:49;;;;;;;16.83;9.98;;;;;;;9.45;nan;100112.94;4941901;28;20490;-76
2023/04/26 08:05:15;;;;;;;16.48;10.10;;;;;;;9.47;nan;100113.50;4927729;28;20051;-75
2023/04/26 08:07:41;;;;;;;16.50;9.70;;;;;;;9.56;nan;100116.63;4931508;29;20039;-74
2023/04/26 08:10:09;;;;;;;16.13;9.55;;;;;;;9.56;nan;100109.53;4931296;29;20373;-76
2023/04/26 08:12:37;;;;;;;19.50;10.57;;;;;;;9.54;nan;100097.66;4924177;29;20090;-74
2023/04/26 08:15:04;;;;;;;20.42;11.00;;;;;;;9.65;nan;100111.84;4928153;28;20034;-74
2023/04/26 08:17:31;;;;;;;20.25;11.48;;;;;;;9.75;nan;100112.91;4933308;29;20553;-74
2023/04/26 08:19:57;;;;;;;20.98;10.80;;;;;;;9.66;nan;100101.09;4940248;28;20552;-75
2023/04/26 08:22:23;;;;;;;17.60;9.77;;;;;;;9.72;nan;100112.53;4942700;28;20404;-76
2023/04/26 08:24:49;;;;;;;29.88;11.63;;;;;;;9.77;nan;100115.31;4932185;28;20040;-75
2023/04/26 08:27:16;;;;;;;17.08;9.88;;;;;;;9.80;nan;100115.63;4925617;29;20138;-76
2023/04/26 08:29:42;;;;;;;16.92;9.30;;;;;;;9.75;nan;100101.59;4940901;28;20465;-75
2023/04/26 08:32:08;;;;;;;16.30;9.65;;;;;;;9.86;nan;100121.81;4940257;28;20123;-74
2023/04/26 08:34:33;;;;;;;16.75;9.80;;;;;;;9.79;nan;100094.81;4939816;28;20041;-74
2023/04/26 08:36:59;;;;;;;18.52;10.40;;;;;;;9.97;nan;100122.88;4942479;28;20024;-76
2023/04/26 08:39:25;;;;;;;14.30;9.35;;;;;;;9.93;nan;100116.44;4926189;28;20031;-76
2023/04/26 08:41:56;;;;;;;24.50;13.63;;;;;;;9.95;nan;100106.50;4940282;28;20027;-75
2023/04/26 08:44:24;;;;;;;21.25;11.15;;;;;;;10.14;nan;100123.00;4925753;28;20081;-74
2023/04/26 08:46:55;;;;;;;18.23;9.20;;;;;;;10.15;nan;100124.59;4931948;28;20020;-73
2023/04/26 08:49:42;;;;;;;14.77;9.68;;;;;;;10.21;nan;100126.31;4937195;28;20118;-76
2023/04/26 08:52:13;;;;;;;27.30;14.43;;;;;;;10.26;nan;100121.16;4939659;28;20203;-76
2023/04/26 08:54:43;;;;;;;21.35;12.05;;;;;;;10.32;nan;100122.91;4923951;29;20036;-74
2023/04/26 08:57:09;;;;;;;54.58;23.52;;;;;;;10.27;nan;100111.44;4925262;28;20799;-74
2023/04/26 08:59:38;;;;;;;29.27;14.85;;;;;;;10.41;nan;100132.06;4930125;29;20130;-76
2023/04/26 09:02:05;;;;;;;25.23;13.10;;;;;;;10.50;nan;100134.34;4925717;28;20054;-73
2023/04/26 09:04:31;;;;;;;15.13;9.27;;;;;;;10.53;nan;100139.13;4939257;28;20040;-74
2023/04/26 09:07:01;;;;;;;14.20;8.43;;;;;;;10.59;nan;100139.03;4934465;28;20030;-75
2023/04/26 09:09:31;;;;;;;12.07;8.57;;;;;;;10.54;nan;100131.03;4940207;28;20519;-75
2023/04/26 09:12:00;;;;;;;17.58;9.20;;;;;;;10.56;nan;100134.22;4925408;28;20153;-75
2023/04/26 09:14:26;;;;;;;15.48;9.13;;;;;;;10.73;nan;100144.06;4942920;28;20015;-74
2023/04/26 09:16:53;;;;;;;15.88;9.77;;;;;;;10.66;nan;100124.94;4941291;28;20027;-75
2023/04/26 09:19:43;;;;;;;18.85;10.20;;;;;;;10.88;nan;100149.63;4922344;29;20038;-75
2023/04/26 09:22:09;;;;;;;12.43;8.30;;;;;;;10.94;nan;100151.34;4921462;29;20023;-74
2023/04/26 09:24:49;;;;;;;10.65;6.82;;;;;;;10.96;nan;100146.59;4935826;28;20482;-75
2023/04/26 09:27:15;;;;;;;10.75;7.20;;;;;;;11.04;nan;100150.72;4938350;28;20070;-75
2023/04/26 09:30:02;;;;;;;10.15;6.70;;;;;;;11.09;nan;100147.41;4941465;28;20473;-74
2023/04/26 09:32:55;;;;;;;11.70;7.15;;;;;;;11.15;nan;100146.44;4941527;28;20591;-75
2023/04/26 09:35:21;;;;;;;10.82;6.90;;;;;;;11.18;nan;100138.06;4938407;29;20483;-74
2023/04/26 09:38:12;;;;;;;7.93;6.30;;;;;;;11.24;nan;100148.47;4938119;28;20051;-75
2023/04/26 09:40:47;;;;;;;14.30;6.63;;;;;;;11.26;nan;100138.50;4937890;28;20035;-73
2023/04/26 09:43:21;;;;;;;8.32;5.70;;;;;;;11.29;nan;100143.28;4935897;28;20031;-72
2023/04/26 09:45:52;;;;;;;15.15;6.68;;;;;;;11.36;nan;100137.09;4937989;28;20086;-75
2023/04/26 09:48:30;;;;;;;10.55;6.55;;;;;;;11.41;nan;100139.81;4929176;29;20024;-74
2023/04/26 09:50:57;;;;;;;14.80;7.07;;;;;;;11.48;nan;100143.91;4936818;28;20094;-73
2023/04/26 09:53:37;;;;;;;9.73;5.85;;;;;;;11.56;nan;100139.28;4939833;28;20019;-73
2023/04/26 09:56:10;;;;;;;12.85;7.15;;;;;;;11.53;nan;100116.81;4938969;28;20117;-73
2023/04/26 09:58:57;;;;;;;12.65;6.07;;;;;;;11.65;nan;100135.22;4938321;28;20026;-73
2023/04/26 10:01:24;;;;;;;8.95;6.00;;;;;;;11.57;nan;100125.88;4940170;28;20055;-75
2023/04/26 10:03:50;;;;;;;11.98;5.40;;;;;;;11.58;nan;100130.09;4939869;28;20401;-77
2023/04/26 10:06:18;;;;;;;9.63;5.60;;;;;;;11.46;nan;100116.16;4936852;28;20134;-74
2023/04/26 10:08:44;;;;;;;9.00;5.97;;;;;;;11.47;nan;100117.78;4935450;28;20501;-74
2023/04/26 10:11:10;;;;;;;10.68;5.80;;;;;;;11.43;nan;100116.66;4925762;29;20038;-76
2023/04/26 10:13:36;;;;;;;8.90;5.40;;;;;;;11.56;nan;100121.59;4941064;28;20151;-75
2023/04/26 10:16:03;;;;;;;11.23;6.15;;;;;;;11.71;nan;100121.88;4941518;28;20039;-76
2023/04/26 10:18:30;;;;;;;14.30;7.68;;;;;;;11.71;nan;100124.53;4936459;28;20512;-76
2023/04/26 10:20:59;;;;;;;13.27;7.30;;;;;;;11.65;nan;100119.41;4938504;28;20430;-76
2023/04/26 10:23:26;;;;;;;;;;;;;;;11.82;nan;100136.03;4938723;28;20056;-77
2023/04/26 10:25:52;;;;;;;19.42;7.28;;;;;;;11.87;nan;100127.44;4920568;29;20285;-76
2023/04/26 10:28:46;;;;;;;17.02;7.32;;;;;;;11.94;nan;100127.28;4926873;28;20114;-74
2023/04/26 10:31:11;;;;;;;12.55;6.30;;;;;;;11.99;nan;100129.97;4933512;28;20561;-74
2023/04/26 10:33:39;;;;;;;10.10;5.32;;;;;;;11.96;nan;100128.63;4935335;28;20046;-76
2023/04/26 10:36:32;;;;;;;15.82;6.70;;;;;;;11.88;nan;100131.69;4932003;28;20019;-74
2023/04/26 10:39:17;;;;;;;11.40;5.85;;;;;;;11.82;nan;100122.03;4929035;28;20126;-75
2023/04/26 10:41:45;;;;;;;8.45;4.97;;;;;;;11.78;nan;100113.81;4925151;29;20472;-73
2023/04/26 10:44:44;;;;;;;8.00;4.88;;;;;;;11.85;nan;100132.09;4921809;29;20030;-74
2023/04/26 10:47:30;;;;;;;9.77;4.95;;;;;;;11.88;nan;100132.47;4936487;28;20062;-75
2023/04/26 10:50:12;;;;;;;5.80;4.60;;;;;;;11.78;nan;100103.28;4938071;28;20085;-74
2023/04/26 10:53:00;;;;;;;9.63;5.18;;;;;;;11.91;nan;100115.34;4920268;28;20734;-76
2023/04/26 10:55:40;;;;;;;5.70;4.60;;;;;;;11.85;nan;100103.91;4939735;28;20086;-75
2023/04/26 10:58:26;;;;;;;10.75;5.47;;;;;;;11.95;nan;100108.56;4938482;28;20445;-76
2023/04/26 11:01:07;;;;;;;10.15;5.50;;;;;;;12.03;nan;100125.84;4937583;28;20035;-76
2023/04/26 11:03:33;;;;;;;12.82;5.80;;;;;;;12.01;nan;100127.91;4939117;28;20035;-77
2023/04/26 11:05:58;;;;;;;8.98;5.70;;;;;;;11.93;nan;100118.56;4937608;28;20027;-76
2023/04/26 11:08:31;;;;;;;8.07;5.13;;;;;;;12.00;nan;100123.69;4921879;28;20036;-75
2023/04/26 11:11:02;;;;;;;9.90;5.40;;;;;;;11.90;nan;100126.97;4922078;29;20027;-77
2023/04/26 11:13:32;;;;;;;9.57;4.95;;;;;;;11.84;nan;100138.44;4935169;28;20035;-74
2023/04/26 11:16:02;;;;;;;7.13;5.40;;;;;;;11.66;nan;100116.53;4935669;28;20035;-76
2023/04/26 11:18:29;;;;;;;10.25;5.85;;;;;;;11.60;nan;100117.47;4933793;28;20019;-75
2023/04/26 11:20:54;;;;;;;9.32;5.85;;;;;;;11.66;nan;100128.88;4935251;28;20028;-74
2023/04/26 11:23:21;;;;;;;9.05;5.80;;;;;;;11.67;nan;100133.16;4935371;28;20028;-75
2023/04/26 11:25:47;;;;;;;10.55;6.65;;;;;;;11.69;nan;100117.88;4941542;28;20023;-74
2023/04/26 11:28:13;;;;;;;14.38;6.93;;;;;;;11.81;nan;100133.66;4935325;28;20404;-75
2023/04/26 11:30:38;;;;;;;10.18;7.53;;;;;;;11.86;nan;100131.09;4936909;29;20118;-76
2023/04/26 11:33:04;;;;;;;13.07;6.45;;;;;;;11.81;nan;100115.19;4938481;28;20561;-76
2023/04/26 11:35:33;;;;;;;14.80;7.72;;;;;;;12.00;nan;100127.13;4935969;29;20054;-75
2023/04/26 11:38:01;;;;;;;30.40;9.35;;;;;;;11.91;nan;100115.34;4927434;28;20077;-76
2023/04/26 11:40:28;;;;;;;9.05;6.43;;;;;;;12.06;nan;100120.06;4928070;29;20486;-75
2023/04/26 11:42:58;;;;;;;13.20;7.28;;;;;;;12.08;nan;100110.06;4935698;28;20046;-76
2023/04/26 11:45:23;;;;;;;;;;;;;;;12.24;nan;100122.44;4938697;28;20442;-76
2023/04/26 11:47:49;;;;;;;9.57;6.20;;;;;;;12.38;nan;100120.28;4940098;28;19926;-73
2023/04/26 11:50:19;;;;;;;12.13;7.18;;;;;;;12.34;nan;100101.47;4932186;29;20035;-76
2023/04/26 11:52:45;;;;;;;12.98;8.27;;;;;;;12.53;nan;100106.47;4931744;29;20039;-75
2023/04/26 11:55:13;;;;;;;9.80;6.05;;;;;;;12.70;nan;100125.69;4937389;28;20027;-77
2023/04/26 11:57:38;;;;;;;7.97;5.88;;;;;;;12.67;nan;100120.13;4920574;29;20054;-76
2023/04/26 12:00:15;;;;;;;9.18;5.43;;;;;;;12.67;nan;100102.41;4931549;28;20808;-75
2023/04/26 12:02:45;;;;;;;8.38;6.03;;;;;;;12.93;nan;100119.38;4930456;29;20043;-75
2023/04/26 12:05:24;;;;;;;9.82;6.07;;;;;;;13.02;nan;100118.91;4933082;29;20454;-75
2023/04/26 12:07:54;;;;;;;7.22;5.15;;;;;;;13.04;nan;100098.34;4941879;28;20036;-72
2023/04/26 12:10:25;;;;;;;9.48;5.53;;;;;;;13.13;nan;100099.50;4940358;28;20371;-71